Time;durP1;ratioP1;P1;durP2;ratioP2;P2;SDS_P1;SDS_P2;PMS_P1;PMS_P2;Temp;Humidity;BMP_temperature;BMP_pressure;BME280_temperature;BME280_humidity;BME280_pressure;Samples;Min_cycle;Max_cycle;Signal;HPM_P1;HPM_P2
2021/03/07 00:01:39;;;;;;;6.83;4.70;;;5.30;99.90;;;;;;5055266;28;20846;-73
2021/03/07 00:04:05;;;;;;;5.17;4.77;;;5.40;99.90;;;;;;5055456;28;20480;-74
2021/03/07 00:06:31;;;;;;;4.70;4.30;;;5.40;99.90;;;;;;5055542;28;20452;-73
2021/03/07 00:08:58;;;;;;;4.80;4.40;;;5.40;99.90;;;;;;5055321;28;21033;-73
2021/03/07 00:11:24;;;;;;;5.13;4.22;;;5.40;99.90;;;;;;5055439;28;20201;-73
2021/03/07 00:13:50;;;;;;;4.17;3.77;;;5.40;99.90;;;;;;5055277;28;20194;-73
2021/03/07 00:16:16;;;;;;;4.82;4.32;;;5.40;99.90;;;;;;5055229;28;20448;-73
2021/03/07 00:18:42;;;;;;;6.30;3.67;;;5.30;99.90;;;;;;5055079;28;20617;-73
2021/03/07 00:21:08;;;;;;;4.90;4.40;;;5.30;99.90;;;;;;5055252;28;20190;-73
2021/03/07 00:23:34;;;;;;;4.47;4.07;;;5.30;99.90;;;;;;5054946;28;20453;-74
2021/03/07 00:26:01;;;;;;;5.10;4.60;;;5.30;99.90;;;;;;5055261;28;20637;-73
2021/03/07 00:28:27;;;;;;;4.18;3.78;;;5.30;99.90;;;;;;5054940;28;20483;-73
2021/03/07 00:30:53;;;;;;;4.50;4.00;;;5.30;99.90;;;;;;5054952;28;20277;-73
2021/03/07 00:33:19;;;;;;;4.68;4.32;;;5.30;99.90;;;;;;5041542;28;20222;-73
2021/03/07 00:35:45;;;;;;;5.93;5.03;;;5.30;99.90;;;;;;5035198;28;20191;-74
2021/03/07 00:38:11;;;;;;;5.53;5.07;;;5.30;99.90;;;;;;5035011;28;20547;-73
2021/03/07 00:40:37;;;;;;;9.38;4.30;;;5.30;99.90;;;;;;5035024;28;20226;-73
2021/03/07 00:43:04;;;;;;;5.40;4.20;;;5.30;99.90;;;;;;5034699;28;20313;-73
2021/03/07 00:45:31;;;;;;;6.72;4.22;;;5.30;99.90;;;;;;5034802;28;20237;-73
2021/03/07 00:47:57;;;;;;;3.90;3.60;;;5.30;99.90;;;;;;5034555;28;20191;-73
2021/03/07 00:50:25;;;;;;;6.30;3.70;;;5.30;99.90;;;;;;5034836;28;20597;-74
2021/03/07 00:52:51;;;;;;;3.97;3.65;;;5.30;99.90;;;;;;5034712;28;20606;-73
2021/03/07 00:55:17;;;;;;;3.80;3.50;;;5.30;99.90;;;;;;5034699;28;20602;-73
2021/03/07 00:57:43;;;;;;;5.55;4.32;;;5.30;99.90;;;;;;5034472;28;20294;-73
2021/03/07 01:00:14;;;;;;;7.10;4.50;;;5.30;99.90;;;;;;5034567;28;20274;-74
2021/03/07 01:02:40;;;;;;;4.70;4.30;;;5.30;99.90;;;;;;5034556;28;20408;-73
2021/03/07 01:05:07;;;;;;;4.40;4.00;;;5.20;99.90;;;;;;5034558;28;20222;-73
2021/03/07 01:07:34;;;;;;;4.32;3.92;;;5.30;99.90;;;;;;5034308;28;20475;-73
2021/03/07 01:10:00;;;;;;;5.10;4.60;;;5.30;99.90;;;;;;5034210;28;20293;-73
2021/03/07 01:12:26;;;;;;;4.65;4.25;;;5.30;99.90;;;;;;5034255;28;20641;-73
2021/03/07 01:14:52;;;;;;;5.70;5.30;;;5.30;99.90;;;;;;5034118;28;20237;-73
2021/03/07 01:17:19;;;;;;;9.40;5.50;;;5.30;99.90;;;;;;5034309;28;20541;-74
2021/03/07 01:19:45;;;;;;;6.88;5.20;;;5.20;99.90;;;;;;5034314;28;20544;-74
2021/03/07 01:22:11;;;;;;;6.45;4.85;;;5.20;99.90;;;;;;5034115;28;20210;-74
2021/03/07 01:24:37;;;;;;;5.20;4.72;;;5.10;99.90;;;;;;5033762;28;20262;-73
2021/03/07 01:27:04;;;;;;;4.97;4.60;;;5.10;99.90;;;;;;5034015;28;20226;-73
2021/03/07 01:29:30;;;;;;;6.32;5.50;;;5.00;99.90;;;;;;5033767;28;20285;-74
2021/03/07 01:31:56;;;;;;;5.83;5.23;;;5.00;99.90;;;;;;5035741;28;20206;-73
2021/03/07 01:34:23;;;;;;;4.32;4.00;;;4.90;99.90;;;;;;5053862;28;20547;-74
2021/03/07 01:36:49;;;;;;;5.03;4.57;;;4.90;99.90;;;;;;5053869;28;20193;-74
2021/03/07 01:39:15;;;;;;;5.53;4.60;;;4.80;99.90;;;;;;5053576;28;20186;-73
2021/03/07 01:41:41;;;;;;;8.43;6.10;;;4.80;99.90;;;;;;5053635;28;20487;-73
2021/03/07 01:44:07;;;;;;;6.50;5.50;;;4.90;99.90;;;;;;5053488;28;20484;-74
2021/03/07 01:46:34;;;;;;;5.47;4.90;;;4.90;99.90;;;;;;5053683;28;20543;-73
2021/03/07 01:49:00;;;;;;;5.60;5.10;;;5.00;99.90;;;;;;5053497;28;20280;-74
2021/03/07 01:51:27;;;;;;;6.22;5.70;;;5.00;99.90;;;;;;5053572;28;20193;-73
2021/03/07 01:53:53;;;;;;;6.40;5.57;;;5.10;99.90;;;;;;5053353;28;20741;-73
2021/03/07 01:56:22;;;;;;;6.40;5.80;;;5.10;99.90;;;;;;5053333;28;20306;-73
2021/03/07 01:58:49;;;;;;;6.18;5.57;;;5.10;99.90;;;;;;5053225;28;20284;-74
2021/03/07 02:01:15;;;;;;;7.95;5.80;;;5.10;99.90;;;;;;5053363;28;20280;-73
2021/03/07 02:03:50;;;;;;;6.40;5.70;;;5.10;99.90;;;;;;5053381;28;20186;-73
2021/03/07 02:06:15;;;;;;;6.10;5.50;;;5.10;99.90;;;;;;5053235;28;20490;-74
2021/03/07 02:08:42;;;;;;;8.50;6.00;;;5.10;99.90;;;;;;5053082;28;20190;-74
2021/03/07 02:11:08;;;;;;;9.40;5.38;;;5.00;99.90;;;;;;5053034;28;20942;-74
2021/03/07 02:13:37;;;;;;;6.80;5.63;;;5.00;99.90;;;;;;5053159;28;20615;-74
2021/03/07 02:16:06;;;;;;;5.20;4.70;;;5.00;99.90;;;;;;5053107;28;20230;-74
2021/03/07 02:18:32;;;;;;;5.18;4.68;;;4.90;99.90;;;;;;5053027;28;20621;-74
2021/03/07 02:21:03;;;;;;;5.95;5.32;;;4.90;99.90;;;;;;5052640;28;20190;-73
2021/03/07 02:23:32;;;;;;;5.18;4.70;;;4.90;99.90;;;;;;5052783;28;20364;-74
2021/03/07 02:25:59;;;;;;;5.10;4.25;;;4.90;99.90;;;;;;5053369;28;20276;-73
2021/03/07 02:28:26;;;;;;;5.63;4.70;;;4.90;99.90;;;;;;5052840;28;20284;-74
2021/03/07 02:30:52;;;;;;;4.95;4.50;;;4.90;99.90;;;;;;5052961;28;20308;-73
2021/03/07 02:33:21;;;;;;;4.35;4.05;;;4.80;99.90;;;;;;5039749;28;20281;-73
2021/03/07 02:35:54;;;;;;;4.35;3.95;;;4.80;99.90;;;;;;5032891;28;20186;-73
2021/03/07 02:38:23;;;;;;;4.88;3.90;;;4.80;99.90;;;;;;5032743;28;20598;-73
2021/03/07 02:40:52;;;;;;;4.00;3.50;;;4.80;99.90;;;;;;5033048;28;20278;-73
2021/03/07 02:43:20;;;;;;;3.53;3.20;;;4.80;99.90;;;;;;5032755;28;20314;-73
2021/03/07 02:45:47;;;;;;;4.00;3.15;;;4.80;99.90;;;;;;5032842;28;20195;-73
2021/03/07 02:48:20;;;;;;;3.65;2.60;;;4.80;99.90;;;;;;5032669;28;20284;-73
2021/03/07 02:50:47;;;;;;;3.17;2.55;;;4.70;99.90;;;;;;5048286;28;20217;-73
2021/03/07 02:53:17;;;;;;;4.70;2.60;;;4.70;99.90;;;;;;5052747;28;20208;-74
2021/03/07 02:55:46;;;;;;;2.72;2.53;;;4.70;99.90;;;;;;5052424;28;20684;-74
2021/03/07 02:58:15;;;;;;;2.13;1.90;;;4.70;99.90;;;;;;5052636;28;20289;-73
2021/03/07 03:00:50;;;;;;;3.42;1.50;;;4.70;99.90;;;;;;5052488;28;20201;-73
2021/03/07 03:03:18;;;;;;;2.45;1.85;;;4.60;99.90;;;;;;5052378;28;20255;-73
2021/03/07 03:05:45;;;;;;;2.15;1.80;;;4.60;99.90;;;;;;5052336;28;20665;-74
2021/03/07 03:08:14;;;;;;;3.28;1.90;;;4.60;99.90;;;;;;5052616;28;20548;-73
2021/03/07 03:10:40;;;;;;;1.52;1.42;;;4.60;99.90;;;;;;5052476;28;20589;-74
2021/03/07 03:13:08;;;;;;;3.30;1.88;;;4.60;99.90;;;;;;5052492;28;20285;-73
2021/03/07 03:15:35;;;;;;;2.97;1.90;;;4.60;99.90;;;;;;5052354;28;20276;-74
2021/03/07 03:18:02;;;;;;;1.80;1.70;;;4.60;99.90;;;;;;5035389;28;20716;-74
2021/03/07 03:20:30;;;;;;;3.20;1.65;;;4.60;99.90;;;;;;5032564;28;20281;-74
2021/03/07 03:22:57;;;;;;;1.45;1.35;;;4.60;99.90;;;;;;5032406;28;20360;-74
2021/03/07 03:25:23;;;;;;;1.85;1.50;;;4.50;99.90;;;;;;5032212;28;20258;-74
2021/03/07 03:27:53;;;;;;;2.40;1.60;;;4.50;99.90;;;;;;5032520;28;20195;-73
2021/03/07 03:30:22;;;;;;;2.47;1.63;;;4.50;99.90;;;;;;5032275;28;20190;-73
2021/03/07 03:32:49;;;;;;;2.67;1.25;;;4.50;99.90;;;;;;5041408;28;20609;-73
2021/03/07 03:35:17;;;;;;;1.63;1.52;;;4.50;99.90;;;;;;5055572;28;20276;-73
2021/03/07 03:37:45;;;;;;;1.70;1.60;;;4.50;99.90;;;;;;5056154;28;20194;-73
2021/03/07 03:40:16;;;;;;;1.50;1.40;;;4.50;99.90;;;;;;5055889;28;20273;-74
2021/03/07 03:42:44;;;;;;;5.32;1.67;;;4.50;99.90;;;;;;5055802;28;20256;-74
2021/03/07 03:45:11;;;;;;;3.65;1.70;;;4.50;99.90;;;;;;5055678;28;20713;-74
2021/03/07 03:47:41;;;;;;;2.20;1.55;;;4.50;99.90;;;;;;5056066;28;20611;-74
2021/03/07 03:50:10;;;;;;;2.25;1.92;;;4.50;99.90;;;;;;5055805;28;20280;-73
2021/03/07 03:52:38;;;;;;;3.13;1.90;;;4.50;99.90;;;;;;5055682;28;20691;-73
2021/03/07 03:55:08;;;;;;;2.88;1.90;;;4.40;99.90;;;;;;5055558;28;20194;-73
2021/03/07 03:57:37;;;;;;;2.42;1.80;;;4.40;99.90;;;;;;5055559;28;20324;-74
2021/03/07 04:00:06;;;;;;;4.72;1.95;;;4.40;99.90;;;;;;5055692;28;20232;-74
2021/03/07 04:02:34;;;;;;;3.50;2.03;;;4.40;99.90;;;;;;5055366;28;20763;-73
2021/03/07 04:05:05;;;;;;;5.47;1.73;;;4.30;99.90;;;;;;5055588;28;20358;-74
2021/03/07 04:07:31;;;;;;;2.25;2.05;;;4.30;99.90;;;;;;5055541;28;20312;-74
2021/03/07 04:10:00;;;;;;;2.30;2.10;;;4.20;99.90;;;;;;5055238;28;20292;-74
2021/03/07 04:12:26;;;;;;;5.00;2.15;;;4.20;99.90;;;;;;5055431;28;20194;-74
2021/03/07 04:14:53;;;;;;;1.80;1.70;;;4.20;99.90;;;;;;5055405;28;20611;-74
2021/03/07 04:17:23;;;;;;;5.07;2.22;;;4.10;99.90;;;;;;5055300;28;20289;-73
2021/03/07 04:19:49;;;;;;;2.92;2.63;;;4.10;99.90;;;;;;5055264;28;20708;-73
2021/03/07 04:22:16;;;;;;;2.85;1.75;;;4.10;99.90;;;;;;5055014;28;20295;-74
2021/03/07 04:24:43;;;;;;;2.40;2.30;;;4.00;99.90;;;;;;5054863;28;20312;-73
2021/03/07 04:27:10;;;;;;;4.88;2.55;;;4.00;99.90;;;;;;5047424;28;20218;-73
2021/03/07 04:29:38;;;;;;;2.95;2.00;;;4.00;99.90;;;;;;5033864;28;20230;-73
2021/03/07 04:32:05;;;;;;;3.58;2.35;;;4.00;99.90;;;;;;5037723;28;20230;-73
2021/03/07 04:34:32;;;;;;;2.95;2.50;;;3.90;99.90;;;;;;5054824;28;20645;-73
2021/03/07 04:36:58;;;;;;;2.10;1.90;;;3.90;99.90;;;;;;5054806;28;20643;-73
2021/03/07 04:39:25;;;;;;;2.40;1.92;;;3.90;99.90;;;;;;5054962;28;20276;-74
2021/03/07 04:41:51;;;;;;;3.97;2.70;;;3.80;99.90;;;;;;5054626;28;20751;-73
2021/03/07 04:44:18;;;;;;;3.25;2.47;;;3.90;99.90;;;;;;5054328;28;20232;-73
2021/03/07 04:46:44;;;;;;;4.82;2.90;;;3.90;99.90;;;;;;5054438;28;20221;-73
2021/03/07 04:49:10;;;;;;;3.05;2.60;;;3.90;99.90;;;;;;5054651;28;20190;-73
2021/03/07 04:51:36;;;;;;;4.85;2.75;;;3.80;99.90;;;;;;5054450;28;20317;-73
2021/03/07 04:54:03;;;;;;;2.83;2.50;;;3.80;99.90;;;;;;5054726;28;20285;-74
2021/03/07 04:56:30;;;;;;;3.03;2.17;;;3.80;99.90;;;;;;5054519;28;20206;-73
2021/03/07 04:58:56;;;;;;;2.50;1.85;;;3.80;99.90;;;;;;5054634;28;20280;-73
2021/03/07 05:01:23;;;;;;;8.15;2.70;;;3.80;99.90;;;;;;5054367;28;20228;-73
2021/03/07 05:03:51;;;;;;;7.82;3.17;;;3.80;99.90;;;;;;5054363;28;20308;-73
2021/03/07 05:06:18;;;;;;;4.70;2.40;;;3.80;99.90;;;;;;5054190;28;20510;-73
2021/03/07 05:08:44;;;;;;;3.80;2.47;;;3.80;99.90;;;;;;5054365;28;20285;-73
2021/03/07 05:11:10;;;;;;;2.40;2.00;;;3.80;99.90;;;;;;5054370;28;20609;-73
2021/03/07 05:13:36;;;;;;;4.13;2.50;;;3.90;99.90;;;;;;5054299;28;20589;-73
2021/03/07 05:16:02;;;;;;;3.05;2.20;;;3.90;99.90;;;;;;5054173;28;20281;-73
2021/03/07 05:18:29;;;;;;;3.20;2.05;;;4.00;99.90;;;;;;5053998;28;20281;-73
2021/03/07 05:20:55;;;;;;;3.40;2.10;;;4.00;99.90;;;;;;5054126;28;20320;-73
2021/03/07 05:23:21;;;;;;;3.50;2.00;;;4.00;99.90;;;;;;5054019;28;20228;-73
2021/03/07 05:25:47;;;;;;;2.78;2.35;;;4.00;99.90;;;;;;5053804;28;20245;-73
2021/03/07 05:28:13;;;;;;;3.35;2.20;;;4.00;99.90;;;;;;5053780;28;20713;-73
2021/03/07 05:30:39;;;;;;;3.43;2.50;;;4.00;99.90;;;;;;5053981;28;20284;-73
2021/03/07 05:33:05;;;;;;;4.82;2.65;;;4.00;99.90;;;;;;5042249;28;20942;-74
2021/03/07 05:35:32;;;;;;;3.22;1.83;;;4.00;99.90;;;;;;5034064;28;20251;-73
2021/03/07 05:37:58;;;;;;;4.90;1.77;;;4.00;99.90;;;;;;5033952;28;20614;-73
2021/03/07 05:40:25;;;;;;;7.15;3.17;;;4.00;99.90;;;;;;5033865;28;20289;-74
2021/03/07 05:42:51;;;;;;;2.50;2.30;;;4.00;99.90;;;;;;5033672;28;20656;-73
2021/03/07 05:45:17;;;;;;;2.83;1.70;;;4.00;99.90;;;;;;5033616;28;20338;-73
2021/03/07 05:47:43;;;;;;;3.90;2.33;;;4.00;99.90;;;;;;5033462;28;20282;-74
2021/03/07 05:50:10;;;;;;;7.45;2.17;;;4.00;99.90;;;;;;5033821;28;20278;-73
2021/03/07 05:52:39;;;;;;;3.97;2.20;;;4.00;99.90;;;;;;5033619;28;20194;-74
2021/03/07 05:55:06;;;;;;;1.80;1.70;;;4.00;99.90;;;;;;5033611;28;20233;-74
2021/03/07 05:57:32;;;;;;;3.70;1.65;;;4.10;99.90;;;;;;5032630;28;20607;-73
2021/03/07 06:00:01;;;;;;;2.80;2.40;;;4.10;99.90;;;;;;5033482;28;20739;-73
2021/03/07 06:02:27;;;;;;;3.78;1.95;;;4.10;99.90;;;;;;5033079;28;20214;-73
2021/03/07 06:04:53;;;;;;;2.20;1.85;;;4.10;99.90;;;;;;5033436;28;20198;-73
2021/03/07 06:07:20;;;;;;;4.25;2.25;;;4.10;99.90;;;;;;5033241;28;20713;-73
2021/03/07 06:09:47;;;;;;;4.10;2.10;;;4.10;99.90;;;;;;5033420;28;20606;-73
2021/03/07 06:12:18;;;;;;;1.63;1.52;;;4.10;99.90;;;;;;5033179;28;20230;-73
2021/03/07 06:14:45;;;;;;;5.30;2.40;;;4.20;99.90;;;;;;5033123;28;20285;-74
2021/03/07 06:17:13;;;;;;;4.18;3.70;;;4.20;99.90;;;;;;5033055;28;20281;-73
2021/03/07 06:19:59;;;;;;;3.20;2.30;;;4.20;99.90;;;;;;5033222;28;20190;-73
2021/03/07 06:22:25;;;;;;;3.05;1.73;;;4.30;99.90;;;;;;5033059;28;20577;-73
2021/03/07 06:24:53;;;;;;;2.47;2.33;;;4.30;99.90;;;;;;5032858;28;20309;-73
2021/03/07 06:27:20;;;;;;;4.78;1.83;;;4.30;99.90;;;;;;5032889;28;20720;-73
2021/03/07 06:30:00;;;;;;;3.28;1.60;;;4.30;99.90;;;;;;5033073;28;20205;-73
2021/03/07 06:32:28;;;;;;;2.83;2.10;;;4.40;99.90;;;;;;5038680;28;20268;-73
2021/03/07 06:34:55;;;;;;;3.75;2.20;;;4.40;99.90;;;;;;5052883;28;20281;-73
2021/03/07 06:37:22;;;;;;;3.80;1.77;;;4.40;99.90;;;;;;5052790;28;20281;-73
2021/03/07 06:39:48;;;;;;;1.52;1.40;;;4.50;99.90;;;;;;5052654;28;20679;-73
2021/03/07 06:42:16;;;;;;;3.10;1.90;;;4.50;99.90;;;;;;5052551;28;20798;-73
2021/03/07 06:44:54;;;;;;;1.80;1.45;;;4.60;99.90;;;;;;5052848;28;20194;-73
2021/03/07 06:47:20;;;;;;;2.10;1.63;;;4.60;99.90;;;;;;5052729;28;20273;-73
2021/03/07 06:49:46;;;;;;;2.28;1.95;;;4.60;99.90;;;;;;5052751;28;20537;-73
2021/03/07 06:52:15;;;;;;;2.17;1.95;;;4.70;99.90;;;;;;5052578;28;20233;-73
2021/03/07 06:54:43;;;;;;;1.52;1.40;;;4.70;99.90;;;;;;5052598;28;20190;-73
2021/03/07 06:57:09;;;;;;;4.57;1.20;;;4.70;99.90;;;;;;5052622;28;20212;-73
2021/03/07 06:59:36;;;;;;;2.33;1.55;;;4.70;99.90;;;;;;5052724;28;20277;-74
2021/03/07 07:02:11;;;;;;;5.05;1.60;;;4.60;99.90;;;;;;5052632;28;20355;-73
2021/03/07 07:04:42;;;;;;;3.60;2.42;;;4.60;99.90;;;;;;5052585;28;20185;-73
2021/03/07 07:07:11;;;;;;;2.72;2.25;;;4.60;99.90;;;;;;5052424;28;20189;-73
2021/03/07 07:09:38;;;;;;;2.83;1.65;;;4.60;99.90;;;;;;5056658;28;20676;-73
2021/03/07 07:12:06;;;;;;;1.50;1.40;;;4.60;99.90;;;;;;5056539;28;20280;-73
2021/03/07 07:14:38;;;;;;;4.28;1.65;;;4.60;99.90;;;;;;5056551;28;20193;-73
2021/03/07 07:17:05;;;;;;;2.13;1.92;;;4.60;99.90;;;;;;5056495;28;20285;-73
2021/03/07 07:19:31;;;;;;;3.00;1.58;;;4.70;99.90;;;;;;5056307;28;20192;-74
2021/03/07 07:21:57;;;;;;;2.72;1.83;;;4.70;99.90;;;;;;5056328;28;20294;-74
2021/03/07 07:24:24;;;;;;;2.13;1.73;;;4.80;99.90;;;;;;5056179;28;20312;-74
2021/03/07 07:26:50;;;;;;;2.85;1.40;;;4.80;99.90;;;;;;5056339;28;20190;-73
2021/03/07 07:29:16;;;;;;;2.85;1.83;;;4.80;99.90;;;;;;5055924;28;20599;-76
2021/03/07 07:31:49;;;;;;;2.83;1.45;;;4.90;99.90;;;;;;5053714;28;20218;-75
2021/03/07 07:34:20;;;;;;;2.60;1.70;;;4.90;99.90;;;;;;5046524;28;20222;-75
2021/03/07 07:36:51;;;;;;;7.20;1.85;;;4.90;99.90;;;;;;5054700;28;20352;-75
2021/03/07 07:39:25;;;;;;;1.90;1.73;;;5.00;99.90;;;;;;5055924;28;20191;-77
2021/03/07 07:41:51;;;;;;;2.20;1.52;;;5.00;99.90;;;;;;5041334;28;20278;-76
2021/03/07 07:44:28;;;;;;;2.88;1.63;;;5.10;99.90;;;;;;5035810;28;20199;-75
2021/03/07 07:46:56;;;;;;;2.10;1.75;;;5.20;99.90;;;;;;5041215;28;20600;-75
2021/03/07 07:49:39;;;;;;;2.75;1.90;;;5.20;99.90;;;;;;5044455;28;20672;-75
2021/03/07 07:52:36;;;;;;;3.13;1.58;;;5.30;99.90;;;;;;5041099;28;20623;-76
2021/03/07 07:55:13;;;;;;;1.85;1.70;;;5.30;99.90;;;;;;5035478;28;20208;-76
2021/03/07 07:57:42;;;;;;;1.40;1.30;;;5.40;99.90;;;;;;5035681;28;20221;-76
2021/03/07 08:00:10;;;;;;;2.05;1.83;;;5.40;99.90;;;;;;5052295;28;20189;-76
2021/03/07 08:02:57;;;;;;;1.77;1.63;;;5.50;99.90;;;;;;5055326;28;20213;-75
2021/03/07 08:05:43;;;;;;;1.70;1.60;;;5.50;99.90;;;;;;5055201;28;20194;-75
2021/03/07 08:08:11;;;;;;;2.42;1.63;;;5.50;99.90;;;;;;5035212;28;20668;-75
2021/03/07 08:10:43;;;;;;;4.28;1.73;;;5.50;99.90;;;;;;5035310;28;20229;-75
2021/03/07 08:13:10;;;;;;;1.73;1.50;;;5.60;99.90;;;;;;5035276;28;20195;-75
2021/03/07 08:15:47;;;;;;;1.50;1.40;;;5.70;99.90;;;;;;5035148;28;20186;-75
2021/03/07 08:18:17;;;;;;;5.32;2.00;;;5.70;99.90;;;;;;5035322;28;20324;-75
2021/03/07 08:21:03;;;;;;;3.05;1.67;;;5.80;99.90;;;;;;5034371;28;20194;-75
2021/03/07 08:23:29;;;;;;;2.75;1.60;;;5.70;99.90;;;;;;5034175;28;20218;-75
2021/03/07 08:26:00;;;;;;;2.85;2.00;;;5.80;99.90;;;;;;5035001;28;20274;-76
2021/03/07 08:28:42;;;;;;;2.05;1.70;;;5.80;99.90;;;;;;5034992;28;20545;-75
2021/03/07 08:31:10;;;;;;;3.08;1.55;;;5.90;99.90;;;;;;5035091;28;20212;-75
2021/03/07 08:33:38;;;;;;;3.47;2.10;;;5.90;99.90;;;;;;5050239;28;20213;-75
2021/03/07 08:36:14;;;;;;;2.80;1.65;;;6.00;99.90;;;;;;5054806;28;20225;-76
2021/03/07 08:39:16;;;;;;;2.60;1.70;;;6.10;99.90;;;;;;5054603;28;20194;-75
2021/03/07 08:42:00;;;;;;;3.38;1.70;;;6.10;99.90;;;;;;5039170;28;20198;-75
2021/03/07 08:44:26;;;;;;;2.83;1.90;;;6.10;99.90;;;;;;5042482;28;20197;-75
2021/03/07 08:46:52;;;;;;;2.72;1.52;;;6.10;99.90;;;;;;5044945;28;20262;-75
2021/03/07 08:49:20;;;;;;;2.15;1.90;;;6.10;99.90;;;;;;5042825;28;20187;-76
2021/03/07 08:51:47;;;;;;;1.58;1.33;;;6.10;99.90;;;;;;5044183;28;20214;-76
2021/03/07 08:54:15;;;;;;;2.30;1.55;;;6.10;99.90;;;;;;5044996;28;20278;-75
2021/03/07 08:56:43;;;;;;;3.22;1.60;;;6.20;99.90;;;;;;5043347;28;20218;-75
2021/03/07 08:59:11;;;;;;;7.18;1.85;;;6.20;99.90;;;;;;5042645;28;20274;-75
2021/03/07 09:01:39;;;;;;;3.30;1.80;;;6.20;99.90;;;;;;5043942;28;20276;-75
2021/03/07 09:04:06;;;;;;;2.45;1.80;;;6.30;99.90;;;;;;5044569;28;20794;-75
2021/03/07 09:06:34;;;;;;;3.47;2.00;;;6.20;99.90;;;;;;5040037;28;20193;-74
2021/03/07 09:09:09;;;;;;;2.55;1.80;;;6.10;99.90;;;;;;5046836;28;20269;-74
2021/03/07 09:11:36;;;;;;;2.33;1.73;;;6.00;99.90;;;;;;5043011;28;20202;-74
2021/03/07 09:14:03;;;;;;;3.17;1.80;;;6.10;99.90;;;;;;5035296;28;20197;-74
2021/03/07 09:16:40;;;;;;;2.35;1.92;;;6.10;99.90;;;;;;5044679;28;20277;-76
2021/03/07 09:19:23;;;;;;;1.50;1.40;;;6.20;99.90;;;;;;5039489;28;20660;-76
2021/03/07 09:22:07;;;;;;;3.80;2.75;;;6.20;99.90;;;;;;5038840;28;20277;-79
2021/03/07 09:24:33;;;;;;;2.03;1.92;;;6.30;99.90;;;;;;5034228;28;20727;-78
2021/03/07 09:27:08;;;;;;;3.75;2.25;;;6.30;99.90;;;;;;5048662;28;20190;-77
2021/03/07 09:29:35;;;;;;;2.00;1.80;;;6.20;99.90;;;;;;5036911;28;20866;-80
2021/03/07 09:32:01;;;;;;;3.35;2.33;;;6.30;99.90;;;;;;5042704;28;20214;-79
2021/03/07 09:34:32;;;;;;;2.15;1.95;;;6.30;99.90;;;;;;5041641;28;20187;-79
2021/03/07 09:36:58;;;;;;;2.30;2.20;;;6.20;99.90;;;;;;5044485;28;20183;-79
2021/03/07 09:39:24;;;;;;;5.05;2.60;;;6.20;99.90;;;;;;5041867;28;20278;-80
2021/03/07 09:41:52;;;;;;;6.30;2.58;;;6.20;99.90;;;;;;5043124;28;20236;-79
2021/03/07 09:44:20;;;;;;;3.70;2.15;;;6.20;99.90;;;;;;5041836;28;20217;-80
2021/03/07 09:46:49;;;;;;;3.25;2.40;;;6.30;99.90;;;;;;5043379;28;20209;-80
2021/03/07 09:49:20;;;;;;;3.85;2.55;;;6.30;99.90;;;;;;5042351;28;20277;-79
2021/03/07 09:51:49;;;;;;;3.78;2.10;;;6.20;99.90;;;;;;5041372;28;20277;-80
2021/03/07 09:54:16;;;;;;;5.47;2.35;;;6.20;99.90;;;;;;5036858;28;20273;-79
2021/03/07 09:56:43;;;;;;;4.63;2.70;;;6.20;99.90;;;;;;5032768;28;20273;-80
2021/03/07 09:59:11;;;;;;;4.15;2.30;;;6.20;99.90;;;;;;5032261;28;20274;-79
2021/03/07 10:01:45;;;;;;;3.97;2.42;;;6.10;99.90;;;;;;5032389;28;20281;-76
2021/03/07 10:04:32;;;;;;;2.60;2.40;;;6.10;99.90;;;;;;5032557;28;20218;-77
2021/03/07 10:07:00;;;;;;;5.63;2.90;;;6.10;99.90;;;;;;5032233;28;20282;-76
2021/03/07 10:09:26;;;;;;;5.63;2.80;;;6.10;99.90;;;;;;5050256;28;20206;-77
2021/03/07 10:11:56;;;;;;;3.88;2.45;;;6.00;99.90;;;;;;5045009;28;20273;-76
2021/03/07 10:14:25;;;;;;;2.85;2.20;;;6.10;99.90;;;;;;5040512;28;20218;-77
2021/03/07 10:16:52;;;;;;;3.10;2.65;;;6.20;99.90;;;;;;5038646;28;20680;-77
2021/03/07 10:19:18;;;;;;;4.10;2.90;;;6.20;99.90;;;;;;5043433;28;20545;-77
2021/03/07 10:21:45;;;;;;;4.95;3.08;;;6.20;99.90;;;;;;5040490;28;20269;-76
2021/03/07 10:24:15;;;;;;;3.67;3.38;;;6.10;99.90;;;;;;5042797;28;20369;-77
2021/03/07 10:26:43;;;;;;;5.20;3.40;;;6.20;99.90;;;;;;5047000;28;20239;-77
2021/03/07 10:29:20;;;;;;;3.50;2.90;;;6.20;99.90;;;;;;5043435;28;20182;-76
2021/03/07 10:32:08;;;;;;;3.63;3.25;;;6.10;99.90;;;;;;5037003;28;20646;-77
2021/03/07 10:34:37;;;;;;;4.07;2.60;;;6.00;99.90;;;;;;5047146;28;20186;-76
2021/03/07 10:37:04;;;;;;;3.03;2.83;;;6.10;99.90;;;;;;5041595;28;20734;-77
2021/03/07 10:39:31;;;;;;;6.88;2.95;;;6.00;99.90;;;;;;5039955;28;20197;-77
2021/03/07 10:42:12;;;;;;;3.65;3.22;;;6.10;99.90;;;;;;5040392;28;20210;-77
2021/03/07 10:44:41;;;;;;;4.15;3.22;;;6.20;99.90;;;;;;5039215;28;20236;-77
2021/03/07 10:47:20;;;;;;;5.05;3.03;;;6.20;99.90;;;;;;5041853;28;20560;-77
2021/03/07 10:49:48;;;;;;;6.35;3.95;;;6.20;99.90;;;;;;5044536;28;20190;-77
2021/03/07 10:52:14;;;;;;;7.60;2.90;;;6.20;99.90;;;;;;5050281;28;20691;-77
2021/03/07 10:54:41;;;;;;;3.20;3.00;;;6.00;99.90;;;;;;5045059;28;20218;-79
2021/03/07 10:57:11;;;;;;;4.78;4.32;;;5.90;99.90;;;;;;5045985;28;20206;-77
2021/03/07 10:59:38;;;;;;;4.78;2.67;;;6.00;99.90;;;;;;5037509;28;20233;-77
2021/03/07 11:02:06;;;;;;;8.10;3.42;;;6.00;99.90;;;;;;5035610;28;20273;-77
2021/03/07 11:04:32;;;;;;;4.60;3.05;;;6.00;99.90;;;;;;5043571;28;20190;-77
2021/03/07 11:06:58;;;;;;;4.40;3.20;;;6.10;99.90;;;;;;5041572;28;20190;-76
2021/03/07 11:09:25;;;;;;;3.97;3.22;;;6.00;99.90;;;;;;5044236;28;20348;-77
2021/03/07 11:11:53;;;;;;;6.85;3.05;;;6.10;99.90;;;;;;5038595;28;20221;-77
2021/03/07 11:14:20;;;;;;;3.22;2.90;;;6.10;99.90;;;;;;5039084;28;20191;-79
2021/03/07 11:16:46;;;;;;;3.50;3.22;;;6.10;99.90;;;;;;5040789;28;20606;-77
2021/03/07 11:19:12;;;;;;;3.13;2.92;;;6.10;99.90;;;;;;5046952;28;20269;-77
2021/03/07 11:22:28;;;;;;;4.45;3.63;;;6.10;99.90;;;;;;5033508;28;20573;-77
2021/03/07 11:24:55;;;;;;;3.42;2.92;;;6.10;99.90;;;;;;5033207;28;20268;-77
2021/03/07 11:27:21;;;;;;;8.23;2.92;;;6.20;99.90;;;;;;5032767;28;20589;-77
2021/03/07 11:29:48;;;;;;;4.82;3.40;;;6.20;99.90;;;;;;5050910;28;20190;-76
2021/03/07 11:32:14;;;;;;;5.45;3.85;;;6.20;99.90;;;;;;5034730;28;20186;-76
2021/03/07 11:34:40;;;;;;;4.53;3.80;;;6.20;99.90;;;;;;5040841;28;20187;-76
2021/03/07 11:37:07;;;;;;;4.05;3.30;;;6.10;99.90;;;;;;5044688;28;20194;-76
2021/03/07 11:39:33;;;;;;;3.40;3.10;;;6.20;99.90;;;;;;5031191;28;20527;-76
2021/03/07 11:42:00;;;;;;;4.40;2.90;;;6.10;99.90;;;;;;5032715;28;20198;-76
2021/03/07 11:44:26;;;;;;;4.45;3.13;;;6.00;99.90;;;;;;5046234;28;20222;-76
2021/03/07 11:46:53;;;;;;;8.52;3.30;;;6.00;99.90;;;;;;5040063;28;20204;-76
2021/03/07 11:49:20;;;;;;;5.57;3.63;;;6.00;99.90;;;;;;5051112;28;20611;-76
2021/03/07 11:51:46;;;;;;;7.10;3.25;;;6.00;99.90;;;;;;5035072;28;20191;-76
2021/03/07 11:54:13;;;;;;;4.30;3.78;;;6.10;99.90;;;;;;5050883;28;20210;-76
2021/03/07 11:56:39;;;;;;;6.43;3.42;;;6.10;99.90;;;;;;5047907;28;20225;-76
2021/03/07 11:59:07;;;;;;;3.05;2.85;;;6.00;99.90;;;;;;5045004;28;20332;-76
2021/03/07 12:01:33;;;;;;;6.22;3.10;;;6.10;99.90;;;;;;5040446;28;20206;-76
2021/03/07 12:04:00;;;;;;;6.95;3.45;;;6.10;99.90;;;;;;5051073;28;20221;-80
2021/03/07 12:06:27;;;;;;;4.97;3.70;;;6.00;99.90;;;;;;5040374;28;20182;-79
2021/03/07 12:08:53;;;;;;;6.75;3.30;;;6.00;99.90;;;;;;5045350;28;20186;-76
2021/03/07 12:11:20;;;;;;;4.50;3.45;;;6.10;99.90;;;;;;5043708;28;20186;-76
2021/03/07 12:13:46;;;;;;;4.38;3.42;;;6.10;99.90;;;;;;5044681;28;20190;-76
2021/03/07 12:16:14;;;;;;;4.75;3.90;;;6.20;99.90;;;;;;5042063;28;20552;-76
2021/03/07 12:18:41;;;;;;;5.30;3.03;;;6.10;99.90;;;;;;5044943;28;20187;-76
2021/03/07 12:21:09;;;;;;;3.42;3.22;;;6.10;99.90;;;;;;5039518;28;20191;-77
2021/03/07 12:23:35;;;;;;;3.92;3.05;;;6.00;99.90;;;;;;5043204;28;20226;-76
2021/03/07 12:26:02;;;;;;;3.70;3.20;;;6.00;99.90;;;;;;5043301;28;20185;-76
2021/03/07 12:28:28;;;;;;;3.85;3.47;;;6.00;99.90;;;;;;5044933;28;20217;-76
2021/03/07 12:30:55;;;;;;;3.75;3.30;;;5.90;99.90;;;;;;5045481;28;20183;-76
2021/03/07 12:33:22;;;;;;;6.55;3.55;;;5.90;99.90;;;;;;5044477;28;20247;-76
2021/03/07 12:35:49;;;;;;;5.13;3.83;;;5.90;99.90;;;;;;5044639;28;20187;-76
2021/03/07 12:38:15;;;;;;;4.22;3.83;;;5.90;99.90;;;;;;5047146;28;20190;-76
2021/03/07 12:40:41;;;;;;;8.93;3.90;;;5.90;99.90;;;;;;5034083;28;20205;-76
2021/03/07 12:43:07;;;;;;;4.90;3.80;;;6.00;99.90;;;;;;5044202;28;20214;-76
2021/03/07 12:45:34;;;;;;;7.07;4.43;;;6.00;99.90;;;;;;5054158;28;20182;-76
2021/03/07 12:48:00;;;;;;;6.55;3.80;;;6.00;99.90;;;;;;5037416;28;20186;-76
2021/03/07 12:50:27;;;;;;;5.78;3.85;;;6.00;99.90;;;;;;5048820;28;20189;-76
2021/03/07 12:52:53;;;;;;;4.18;3.88;;;6.00;99.90;;;;;;5043054;28;20194;-76
2021/03/07 12:55:21;;;;;;;6.82;4.13;;;6.00;99.90;;;;;;5041557;28;20187;-76
2021/03/07 12:57:47;;;;;;;4.22;3.75;;;6.00;99.90;;;;;;5050245;28;20197;-76
2021/03/07 13:00:14;;;;;;;5.45;3.90;;;5.90;99.90;;;;;;5050344;28;20183;-76
2021/03/07 13:02:40;;;;;;;4.07;3.65;;;5.90;99.90;;;;;;5040599;28;20206;-76
2021/03/07 13:05:07;;;;;;;3.72;3.42;;;5.90;99.90;;;;;;5042740;28;20194;-76